Latest Weather Observations for Onslow Airport

IDW60801

Issued at 8:03 am WST Sunday 2 August 2015 (issued every 30 minutes, with the page automatically refreshed every 10 minutes)

About weather observations | Map of weather stations | Latest weather observations for WA | Other Formats
Station Details ID: 005017 Name: ONSLOW AIRPORT Lat: -21.67 Lon: 115.11 Height: 10.5 m
Data from the previous 72 hours. | See also: Recent months at Onslow Airport
Date/Time
WST
Temp
°C
App
Temp
°C
Dew
Point
Rel
Hum
%
Delta-T
°C
Wind Press
QNH
hPa
Press
MSL
hPa
Rain
since 9 am
mm
Dir
 
Spd
km/h
Gust
km/h
Spd
kts
Gust
kts
02/08:00am 17.2 13.7 11.0 67 3.3 S 20 24 11 13 1020.4 1020.4 0.0
02/07:30am 15.5 12.6 10.9 74 2.4 S 17 20 9 11 1020.1 1020.1 0.0
02/07:00am 14.8 11.8 10.8 77 2.1 S 17 20 9 11 1019.8 1019.8 0.0
02/06:30am 14.7 11.4 10.9 78 2.0 S 19 24 10 13 1019.6 1019.6 0.0
02/06:00am 15.0 11.8 11.2 78 2.0 S 19 20 10 11 1019.4 1019.4 0.0
02/05:30am 15.2 12.5 11.6 79 1.9 S 17 19 9 10 1019.0 1019.0 0.0
02/05:00am 15.2 12.4 11.4 78 2.0 S 17 22 9 12 1018.8 1018.8 0.0
02/04:30am 15.4 12.0 11.2 76 2.2 S 20 24 11 13 1019.0 1019.0 0.0
02/04:00am 15.8 13.0 11.4 75 2.4 S 17 20 9 11 1019.0 1019.0 0.0
02/03:30am 16.1 13.0 11.5 74 2.5 SSW 19 22 10 12 1019.0 1019.0 0.0
02/03:00am 16.4 13.3 11.6 73 2.6 SSW 19 24 10 13 1019.0 1019.0 0.0
02/02:30am 16.9 13.9 11.8 72 2.8 SSW 19 24 10 13 1019.3 1019.3 0.0
02/02:00am 17.3 14.1 11.8 70 3.0 SSW 20 28 11 15 1019.5 1019.5 0.0
02/01:30am 17.1 15.1 12.8 76 2.4 SSW 15 17 8 9 1019.6 1019.6 0.0
02/01:00am 17.4 15.5 12.9 75 2.5 SW 15 19 8 10 1019.7 1019.7 0.0
02/12:30am 17.9 15.7 13.4 75 2.5 SSW 17 20 9 11 1019.5 1019.5 0.0
02/12:00am 18.4 16.7 13.5 73 2.8 SSW 15 19 8 10 1019.6 1019.6 0.0
 
Date/Time
WST
Temp
°C
App
Temp
°C
Dew
Point
Rel
Hum
%
Delta-T
°C
Wind Press
QNH
hPa
Press
MSL
hPa
Rain
since 9 am
mm
Dir
 
Spd
km/h
Gust
km/h
Spd
kts
Gust
kts
01/11:30pm 18.8 16.1 13.4 71 3.1 SSW 20 26 11 14 1019.7 1019.7 0.0
01/11:00pm 19.3 17.0 14.1 72 3.0 SW 19 24 10 13 1019.7 1019.7 0.0
01/10:30pm 19.9 17.5 14.3 70 3.2 SW 20 28 11 15 1019.6 1019.6 0.0
01/10:00pm 19.9 18.5 15.5 76 2.6 SW 17 24 9 13 1019.6 1019.6 0.0
01/09:30pm 19.7 18.8 15.8 78 2.3 WSW 15 19 8 10 1019.5 1019.5 0.0
01/09:00pm 19.7 19.3 16.2 80 2.1 WSW 13 17 7 9 1019.3 1019.3 0.0
01/08:30pm 19.9 18.7 16.2 79 2.2 WSW 17 20 9 11 1019.2 1019.2 0.0
01/08:00pm 19.8 18.9 15.9 78 2.3 WSW 15 15 8 8 1018.8 1018.8 0.0
01/07:30pm 20.5 19.7 16.1 76 2.6 W 15 20 8 11 1018.6 1018.6 0.0
01/07:00pm 21.0 19.3 15.8 72 3.1 W 19 22 10 12 1018.3 1018.3 0.0
01/06:30pm 21.2 19.3 15.3 69 3.5 W 19 24 10 13 1018.0 1018.0 0.0
01/06:00pm 21.7 19.5 14.8 65 4.1 W 20 26 11 14 1017.7 1017.7 0.0
01/05:30pm 22.7 19.9 15.3 63 4.4 WNW 24 30 13 16 1017.6 1017.6 0.0
01/05:00pm 23.4 20.5 15.2 60 4.9 WNW 24 30 13 16 1017.4 1017.4 0.0
01/04:30pm 25.5 22.5 13.7 48 6.9 W 22 32 12 17 1017.2 1017.2 0.0
01/04:00pm 25.8 22.0 13.6 47 7.2 WNW 26 33 14 18 1017.1 1017.1 0.0
01/03:30pm 25.8 21.3 12.6 44 7.6 W 28 35 15 19 1017.2 1017.2 0.0
01/03:00pm 25.8 21.6 13.6 47 7.2 WNW 28 35 15 19 1017.4 1017.4 0.0
01/02:30pm 25.5 21.4 13.7 48 6.9 W 28 37 15 20 1017.7 1017.7 0.0
01/02:00pm 25.0 21.2 14.8 53 6.1 WNW 28 35 15 19 1017.8 1017.8 0.0
01/01:30pm 25.9 23.6 14.1 48 7.0 W 19 28 10 15 1018.0 1018.0 0.0
01/01:00pm 26.4 23.5 10.9 38 8.7 SW 17 24 9 13 1018.3 1018.3 0.0
01/12:30pm 26.3 23.2 11.6 40 8.4 SSW 19 28 10 15 1018.7 1018.7 0.0
01/12:00pm 25.9 23.1 11.3 40 8.2 SW 17 28 9 15 1019.2 1019.2 0.0
01/11:30am 24.5 21.9 13.1 49 6.6 SW 19 24 10 13 1019.7 1019.7 0.0
01/11:00am 24.7 22.1 13.9 51 6.3 SSW 20 30 11 16 1020.0 1020.0 0.0
01/10:30am 24.0 22.0 15.0 57 5.4 S 19 26 10 14 1020.2 1020.2 0.0
01/10:00am 23.4 21.4 15.5 61 4.7 S 20 28 11 15 1020.2 1020.2 0.0
01/09:30am 23.0 21.0 15.6 63 4.4 SSE 20 24 11 13 1020.2 1020.2 0.0
01/09:00am 22.0 20.0 16.5 71 3.3 S 22 28 12 15 1019.8 1019.8 0.0
01/08:30am 21.2 19.3 16.8 76 2.7 S 22 30 12 16 1019.4 1019.4 0.0
01/08:00am 19.9 19.2 17.3 85 1.6 S 17 20 9 11 1018.9 1018.9 0.0
01/07:30am 19.2 18.5 17.3 89 1.2 S 17 20 9 11 1018.7 1018.7 0.0
01/07:00am 19.0 18.7 17.3 90 1.0 S 15 22 8 12 1018.4 1018.4 0.0
01/06:30am 19.0 19.1 17.5 91 0.9 S 13 19 7 10 1018.2 1018.2 0.0
01/06:00am 19.1 19.0 17.8 92 0.8 SSW 15 19 8 10 1017.9 1017.9 0.0
01/05:30am 19.1 19.4 17.9 93 0.7 SW 13 17 7 9 1017.7 1017.7 0.0
01/05:00am 18.9 18.4 17.7 93 0.7 SSW 17 20 9 11 1017.4 1017.4 0.0
01/04:30am 18.9 19.1 17.6 92 0.8 SSW 13 17 7 9 1017.2 1017.2 0.0
01/04:00am 19.1 19.3 17.6 91 0.9 SSW 13 17 7 9 1017.2 1017.2 0.0
01/03:30am 19.3 19.1 17.6 90 1.0 SSW 15 17 8 9 1017.3 1017.3 0.0
01/03:00am 19.3 19.5 17.6 90 1.0 SW 13 15 7 8 1017.3 1017.3 0.0
01/02:30am 19.7 19.9 17.7 88 1.2 SW 13 15 7 8 1017.4 1017.4 0.0
01/02:00am 19.4 20.3 17.5 89 1.2 SW 9 13 5 7 1017.5 1017.5 0.0
01/01:30am 19.2 20.0 17.2 88 1.2 SW 9 11 5 6 1017.7 1017.7 0.0
01/01:00am 19.5 20.4 17.5 88 1.2 SW 9 11 5 6 1017.8 1017.8 0.0
01/12:30am 20.0 20.1 17.4 85 1.6 SW 13 17 7 9 1017.8 1017.8 0.0
01/12:00am 20.4 20.6 17.6 84 1.7 SW 13 19 7 10 1017.8 1017.8 0.0
 
Date/Time
WST
Temp
°C
App
Temp
°C
Dew
Point
Rel
Hum
%
Delta-T
°C
Wind Press
QNH
hPa
Press
MSL
hPa
Rain
since 9 am
mm
Dir
 
Spd
km/h
Gust
km/h
Spd
kts
Gust
kts
31/11:30pm 20.4 19.7 17.4 83 1.8 SW 17 20 9 11 1017.7 1017.7 0.0
31/11:00pm 20.7 19.6 17.3 81 2.1 SW 19 24 10 13 1017.8 1017.8 0.0
31/10:30pm 20.7 20.2 17.7 83 1.8 SW 17 22 9 12 1017.8 1017.8 0.0
31/10:00pm 20.7 20.1 17.5 82 2.0 WSW 17 20 9 11 1017.6 1017.6 0.0
31/09:30pm 20.9 21.1 17.7 82 2.0 WSW 13 19 7 10 1017.5 1017.5 0.0
31/09:00pm 21.2 21.2 18.2 83 1.9 WSW 15 19 8 10 1017.4 1017.4 0.0
31/08:30pm 21.3 21.7 18.9 86 1.5 WSW 15 20 8 11 1017.2 1017.2 0.0
31/08:00pm 21.5 21.6 19.2 87 1.5 W 17 20 9 11 1016.8 1016.8 0.0
31/07:30pm 21.6 22.1 19.3 87 1.5 W 15 19 8 10 1016.5 1016.5 0.0
31/07:00pm 21.7 22.8 19.6 88 1.3 W 13 17 7 9 1016.2 1016.2 0.0
31/06:30pm 21.8 22.9 19.7 88 1.3 WNW 13 17 7 9 1015.7 1015.7 0.0
31/06:00pm 22.5 23.0 20.0 86 1.6 WNW 17 22 9 12 1015.6 1015.6 0.0
31/05:30pm 23.5 23.4 20.0 81 2.3 WNW 20 26 11 14 1015.6 1015.6 0.0
31/05:00pm 24.1 23.0 19.4 75 3.0 WNW 24 30 13 16 1015.5 1015.5 0.0
31/04:30pm 24.9 23.0 18.6 68 4.0 WNW 26 32 14 17 1015.2 1015.2 0.0
31/04:00pm 26.1 23.8 17.5 59 5.4 W 26 30 14 16 1015.2 1015.2 0.0
31/03:30pm 26.6 24.4 16.8 55 6.1 W 24 30 13 16 1015.2 1015.2 0.0
31/03:00pm 26.6 25.3 18.2 60 5.3 WNW 22 28 12 15 1015.2 1015.2 0.0
31/02:30pm 26.7 25.2 17.7 57 5.7 WNW 22 26 12 14 1015.5 1015.5 0.0
31/02:00pm 27.2 26.0 17.4 55 6.1 NW 20 24 11 13 1015.8 1015.8 0.0
31/01:30pm 27.0 26.8 18.6 60 5.4 NW 17 20 9 11 1016.1 1016.1 0.0
31/01:00pm 27.6 28.7 19.7 62 5.1 NW 13 17 7 9 1016.5 1016.5 0.0
31/12:30pm 26.1 27.1 19.5 67 4.3 NW 13 19 7 10 1016.9 1016.9 0.0
31/12:00pm 27.2 28.4 20.0 64 4.7 WNW 13 15 7 8 1017.2 1017.2 0.0
31/11:30am 26.0 26.8 19.9 69 4.0 WNW 15 20 8 11 1017.6 1017.6 0.0
31/11:00am 25.6 25.4 17.5 61 5.1 WSW 15 20 8 11 1018.0 1018.0 0.0
31/10:30am 24.2 26.2 19.1 73 3.3 SW 7 11 4 6 1018.2 1018.2 0.0
31/10:00am 22.5 23.9 19.5 83 1.9 WSW 11 15 6 8 1018.7 1018.7 0.0
31/09:30am 21.1 23.2 18.9 87 1.4 SW 6 11 3 6 1018.9 1018.9 0.0
31/09:00am 20.3 22.1 18.8 91 0.9 ESE 7 9 4 5 1018.7 1018.7 0.0
31/08:30am 18.7 19.2 17.5 93 0.7 S 11 24 6 13 1018.5 1018.5 0.0
31/08:00am 18.4 19.6 18.2 99 0.1 SSW 9 9 5 5 1018.1 1018.1 0.0
31/07:30am 18.2 20.3 18.0 99 0.1 ESE 4 6 2 3 1017.5 1017.5 0.0
31/07:00am 18.1 19.2 17.9 99 0.1 E 9 9 5 5 1017.0 1017.0 0.0
31/06:30am 18.1 19.2 17.9 99 0.1 ESE 9 11 5 6 1016.9 1016.9 0.0
31/06:00am 17.7 19.0 17.5 99 0.1 ESE 7 9 4 5 1016.7 1016.7 0.0
31/05:30am 17.7 18.9 17.4 98 0.2 E 7 9 4 5 1016.7 1016.7 0.0
31/05:00am 18.4 19.5 18.1 98 0.2 ESE 9 11 5 6 1016.7 1016.7 0.0
31/04:30am 17.9 18.5 16.8 93 0.7 ESE 9 11 5 6 1016.9 1016.9 0.0
31/04:00am 18.5 19.3 17.3 93 0.7 ESE 9 11 5 6 1017.0 1017.0 0.0
31/03:30am 18.5 19.7 17.3 93 0.7 E 7 7 4 4 1017.1 1017.1 0.0
31/03:00am 18.7 20.1 17.4 92 0.8 E 6 7 3 4 1017.3 1017.3 0.0
31/02:30am 18.0 20.4 16.9 93 0.7 CALM 0 0 0 0 1017.5 1017.5 0.0
31/02:00am 18.9 22.0 18.6 98 0.2 CALM 0 0 0 0 1017.7 1017.7 0.0
31/01:30am 19.1 20.8 18.6 97 0.3 WNW 7 7 4 4 1018.0 1018.0 0.0
31/01:00am 19.2 20.9 18.5 96 0.4 NW 7 7 4 4 1018.4 1018.4 0.0
31/12:30am 19.4 21.1 18.6 95 0.5 NW 7 9 4 5 1018.5 1018.5 0.0
31/12:00am 19.3 20.5 18.3 94 0.6 NW 9 11 5 6 1018.7 1018.7 0.0
 
Date/Time
WST
Temp
°C
App
Temp
°C
Dew
Point
Rel
Hum
%
Delta-T
°C
Wind Press
QNH
hPa
Press
MSL
hPa
Rain
since 9 am
mm
Dir
 
Spd
km/h
Gust
km/h
Spd
kts
Gust
kts
30/11:30pm 19.6 21.0 18.6 94 0.6 NW 9 9 5 5 1019.0 1019.0 0.0
30/11:00pm 20.2 22.9 18.7 91 0.9 NNW 2 7 1 4 1019.4 1019.4 0.0
30/10:30pm 20.2 23.4 18.9 92 0.8 CALM 0 0 0 0 1019.7 1019.7 0.0
30/10:00pm 20.3 23.3 18.4 89 1.2 CALM 0 0 0 0 1019.8 1019.8 0.0
30/09:30pm 20.5 22.4 18.6 89 1.2 W 6 6 3 3 1019.8 1019.8 0.0
30/09:00pm 20.5 23.8 19.0 91 0.9 CALM 0 0 0 0 1019.5 1019.5 0.0
30/08:30pm 20.7 22.3 18.3 86 1.5 WNW 7 9 4 5 1019.4 1019.4 0.0
30/08:00pm 21.1 22.0 18.3 84 1.7 WNW 11 13 6 7 1019.1 1019.1 0.0
30/07:30pm 21.4 22.0 17.8 80 2.2 NW 11 13 6 7 1018.7 1018.7 0.0
30/07:00pm 22.1 22.5 17.2 74 3.0 NW 11 13 6 7 1018.5 1018.5 0.0
30/06:30pm 22.5 22.7 16.8 70 3.5 NW 11 13 6 7 1018.3 1018.3 0.0
30/06:00pm 23.3 22.6 16.4 65 4.2 NNW 15 20 8 11 1018.0 1018.0 0.0
30/05:30pm 24.7 22.6 15.1 55 5.8 NNW 20 24 11 13 1017.9 1017.9 0.0
30/05:00pm 26.1 23.3 13.2 44 7.5 NNW 20 24 11 13 1017.7 1017.7 0.0
30/04:30pm 27.0 24.4 13.7 44 7.9 NNW 20 22 11 12 1017.8 1017.8 0.0
30/04:00pm 27.9 25.1 12.7 39 8.9 N 19 22 10 12 1017.7 1017.7 0.0
30/03:30pm 28.5 25.7 13.2 39 9.0 N 20 24 11 13 1017.7 1017.7 0.0
30/03:00pm 29.0 26.2 13.2 37 9.3 N 20 22 11 12 1017.8 1017.8 0.0
30/02:30pm 29.1 26.4 12.9 37 9.6 NNW 19 22 10 12 1017.8 1017.8 0.0
30/02:00pm 29.5 26.6 12.4 35 10.0 N 19 20 10 11 1018.0 1018.0 0.0
30/01:30pm 29.3 26.8 12.3 35 9.9 N 17 20 9 11 1018.4 1018.4 0.0
30/01:00pm 29.2 25.9 11.7 34 10.1 N 20 24 11 13 1018.7 1018.7 0.0
30/12:30pm 29.9 27.4 12.3 33 10.3 N 17 20 9 11 1019.1 1019.1 0.0
30/12:00pm 29.7 28.1 11.7 33 10.4 NNE 11 15 6 8 1019.4 1019.4 0.0
30/11:30am 29.5 28.5 12.4 35 10.0 NE 9 13 5 7 1019.6 1019.6 0.0
30/11:00am 28.6 28.1 12.5 37 9.4 ENE 7 9 4 5 1020.1 1020.1 0.0
30/10:30am 28.2 27.6 11.7 36 9.5 E 6 9 3 5 1020.5 1020.5 0.0
30/10:00am 27.3 26.6 12.1 39 8.8 NE 7 11 4 6 1020.6 1020.6 0.0
30/09:30am 26.2 26.0 13.0 44 7.7 E 6 9 3 5 1020.5 1020.5 0.0
30/09:00am 24.9 25.7 14.7 53 6.1 ESE 4 7 2 4 1020.5 1020.5 0.0
30/08:30am 23.2 23.5 15.0 60 4.9 E 7 9 4 5 1020.1 1020.1 0.0

Other Formats:

Comma delimited format used in spreadsheet applications
http://www.bom.gov.au/fwo/IDW60801/IDW60801.95305.axf

JavaScript Object Notation format (JSON) in row-major order
http://www.bom.gov.au/fwo/IDW60801/IDW60801.95305.json